createdAt,value
2023-02-12T00:05:41.697Z,103470.91
2023-02-12T00:11:31.310Z,103466.66
2023-02-12T00:17:18.299Z,103466.84
2023-02-12T00:23:07.080Z,103464.41
2023-02-12T00:28:55.347Z,103466.84
2023-02-12T00:34:42.420Z,103474.19
2023-02-12T00:40:31.677Z,103480.94
2023-02-12T00:46:21.695Z,103461.97
2023-02-12T00:52:11.221Z,103473.56
2023-02-12T00:58:02.078Z,103468.50
2023-02-12T01:03:49.034Z,103448.91
2023-02-12T01:09:36.058Z,103458.28
2023-02-12T01:15:27.524Z,103454.41
2023-02-12T01:21:20.031Z,103462.78
2023-02-12T01:27:06.833Z,103457.91
2023-02-12T01:32:55.622Z,103469.69
2023-02-12T01:38:42.464Z,103464.44
2023-02-12T01:44:31.821Z,103465.22
2023-02-12T01:50:21.128Z,103467.25
2023-02-12T01:56:09.603Z,103463.19
2023-02-12T02:01:56.753Z,103467.69
2023-02-12T02:07:44.418Z,103456.91
2023-02-12T02:13:49.904Z,103465.63
2023-02-12T02:19:56.591Z,103473.38
2023-02-12T02:26:02.651Z,103459.09
2023-02-12T02:31:57.319Z,103456.66
2023-02-12T02:38:16.450Z,103466.03
2023-02-12T02:44:10.387Z,103463.19
2023-02-12T02:50:02.425Z,103460.44
2023-02-12T02:55:57.460Z,103456.63
2023-02-12T03:02:07.690Z,103441.97
2023-02-12T03:07:59.917Z,103438.31
2023-02-12T03:13:52.118Z,103438.53
2023-02-12T03:20:00.425Z,103427.16
2023-02-12T03:26:11.394Z,103424.50
2023-02-12T03:32:10.383Z,103431.59
2023-02-12T03:37:57.491Z,103428.34
2023-02-12T03:43:54.053Z,103424.44
2023-02-12T03:49:58.877Z,103429.56
2023-02-12T03:55:49.676Z,103432.66
2023-02-12T04:01:37.124Z,103423.88
2023-02-12T04:07:23.974Z,103430.19
2023-02-12T04:13:10.705Z,103426.53
2023-02-12T04:18:58.908Z,103426.91
2023-02-12T04:25:01.001Z,103429.38
2023-02-12T04:31:08.896Z,103433.88
2023-02-12T04:37:11.645Z,103428.94
2023-02-12T04:42:58.395Z,103425.91
2023-02-12T04:48:58.104Z,103428.19
2023-02-12T04:54:45.030Z,103428.56
2023-02-12T05:00:31.955Z,103436.09
2023-02-12T05:06:19.369Z,103436.91
2023-02-12T05:12:06.321Z,103438.13
2023-02-12T05:17:53.127Z,103435.25
2023-02-12T05:23:41.597Z,103438.94
2023-02-12T05:29:28.485Z,103433.25
2023-02-12T05:35:15.323Z,103428.97
2023-02-12T05:41:13.661Z,103427.75
2023-02-12T05:47:00.454Z,103425.28
2023-02-12T05:52:47.171Z,103425.50
2023-02-12T05:58:36.387Z,103422.84
2023-02-12T06:04:26.768Z,103426.31
2023-02-12T06:10:13.976Z,103430.19
2023-02-12T06:16:01.527Z,103440.19
2023-02-12T06:21:48.453Z,103427.13
2023-02-12T06:27:35.395Z,103429.34
2023-02-12T06:33:22.440Z,103429.75
2023-02-12T06:39:09.355Z,103432.25
2023-02-12T06:44:56.711Z,103433.66
2023-02-12T06:50:43.425Z,103421.63
2023-02-12T06:56:34.700Z,103426.69
2023-02-12T07:02:24.284Z,103426.50
2023-02-12T07:08:13.660Z,103430.16
2023-02-12T07:14:00.603Z,103428.94
2023-02-12T07:19:47.425Z,103437.88
2023-02-12T07:25:35.077Z,103441.16
2023-02-12T07:31:23.987Z,103459.28
2023-02-12T07:37:10.791Z,103462.31
2023-02-12T07:42:57.597Z,103461.50
2023-02-12T07:48:50.190Z,103470.25
2023-02-12T07:54:39.505Z,103469.97
2023-02-12T08:00:34.232Z,103484.84
2023-02-12T08:06:27.465Z,103478.13
2023-02-12T08:12:17.860Z,103477.91
2023-02-12T08:18:12.270Z,103487.84
2023-02-12T08:24:09.087Z,103480.72
2023-02-12T08:29:57.972Z,103480.44
2023-02-12T08:35:44.755Z,103487.97
2023-02-12T08:47:34.542Z,103499.31
2023-02-12T08:53:24.432Z,103503.94
2023-02-12T08:59:12.676Z,103506.00
2023-02-12T09:05:03.192Z,103516.88
2023-02-12T09:10:52.019Z,103506.94
2023-02-12T09:16:41.952Z,103517.97
2023-02-12T09:22:28.913Z,103520.25
2023-02-12T09:28:18.731Z,103509.94
2023-02-12T09:34:08.413Z,103508.25
2023-02-12T09:39:55.242Z,103508.25
2023-02-12T09:45:50.375Z,103506.59
2023-02-12T09:51:51.390Z,103512.38
2023-02-12T09:57:40.632Z,103513.84
2023-02-12T10:03:32.164Z,103511.41
2023-02-12T10:09:34.570Z,103502.75
2023-02-12T10:15:56.062Z,103507.91
2023-02-12T10:22:15.278Z,103513.22
2023-02-12T10:28:12.569Z,103504.25
2023-02-12T10:33:59.644Z,103508.97
2023-02-12T10:44:34.302Z,103519.09
2023-02-12T10:50:51.536Z,103514.09
2023-02-12T10:56:38.625Z,103510.28
2023-02-12T11:02:33.888Z,103503.84
2023-02-12T11:08:27.916Z,103482.28
2023-02-12T11:15:07.501Z,103478.81
2023-02-12T11:21:03.627Z,103483.59
2023-02-12T11:26:52.530Z,103476.44
2023-02-12T11:32:43.126Z,103466.88
2023-02-12T11:38:36.771Z,103480.06
2023-02-12T11:44:35.462Z,103478.66
2023-02-12T11:50:33.384Z,103476.63
2023-02-12T11:56:21.592Z,103476.84
2023-02-12T12:02:39.317Z,103462.34
2023-02-12T12:08:29.892Z,103444.81
2023-02-12T12:15:13.575Z,103442.75
2023-02-12T12:22:00.993Z,103455.41
2023-02-12T12:28:19.307Z,103453.41
2023-02-12T12:34:14.331Z,103458.47
2023-02-12T12:40:21.177Z,103444.44
2023-02-12T12:46:31.855Z,103437.09
2023-02-12T12:52:56.363Z,103417.28
2023-02-12T12:59:15.068Z,103409.53
2023-02-12T13:05:39.767Z,103405.47
2023-02-12T13:11:54.803Z,103397.56
2023-02-12T13:17:50.967Z,103400.00
2023-02-12T13:24:16.787Z,103404.91
2023-02-12T13:30:21.300Z,103404.53
2023-02-12T13:36:12.610Z,103391.19
2023-02-12T13:42:08.715Z,103382.03
2023-02-12T13:48:14.268Z,103379.38
2023-02-12T13:54:08.701Z,103371.44
2023-02-12T13:59:58.316Z,103364.91
2023-02-12T14:05:45.001Z,103366.94
2023-02-12T14:11:37.228Z,103367.69
2023-02-12T14:17:29.508Z,103361.78
2023-02-12T14:23:28.649Z,103353.50
2023-02-12T14:29:21.256Z,103358.38
2023-02-12T14:35:44.591Z,103339.19
2023-02-12T14:41:41.808Z,103340.00
2023-02-12T14:47:31.425Z,103346.78
2023-02-12T14:53:29.801Z,103344.19
2023-02-12T14:59:23.186Z,103324.97
2023-02-12T15:05:24.767Z,103320.13
2023-02-12T15:11:21.667Z,103308.69
2023-02-12T15:17:31.047Z,103304.41
2023-02-12T15:23:42.033Z,103310.16
2023-02-12T15:29:52.643Z,103303.78
2023-02-12T15:35:44.842Z,103298.34
2023-02-12T15:41:39.493Z,103303.41
2023-02-12T15:47:27.894Z,103298.56
2023-02-12T15:53:21.177Z,103303.91
2023-02-12T15:59:36.314Z,103305.75
2023-02-12T16:05:25.784Z,103298.44
2023-02-12T16:11:21.075Z,103305.41
2023-02-12T16:17:25.490Z,103296.25
2023-02-12T16:23:18.132Z,103292.38
2023-02-12T16:29:17.186Z,103290.09
2023-02-12T16:35:29.617Z,103298.44
2023-02-12T16:57:01.031Z,103279.94
2023-02-12T17:02:48.772Z,103277.06
2023-02-12T17:08:36.442Z,103289.31
2023-02-12T17:14:29.298Z,103288.88
2023-02-12T17:20:18.971Z,103291.34
2023-02-12T17:26:12.450Z,103292.94
2023-02-12T17:32:03.747Z,103290.28
2023-02-12T17:38:18.731Z,103305.56
2023-02-12T17:44:07.762Z,103312.06
2023-02-12T17:49:55.089Z,103314.56
2023-02-12T17:55:42.187Z,103319.03
2023-02-12T18:01:39.820Z,103316.19
2023-02-12T18:07:39.180Z,103322.25
2023-02-12T18:13:26.115Z,103330.44
2023-02-12T18:19:18.998Z,103326.34
2023-02-12T18:25:08.075Z,103332.88
2023-02-12T18:30:58.219Z,103331.63
2023-02-12T18:36:59.561Z,103327.13
2023-02-12T18:42:48.446Z,103338.13
2023-02-12T18:48:35.630Z,103334.78
2023-02-12T18:54:22.982Z,103337.28
2023-02-12T19:00:14.948Z,103337.69
2023-02-12T19:06:06.647Z,103334.41
2023-02-12T19:11:58.229Z,103337.88
2023-02-12T19:17:47.820Z,103340.97
2023-02-12T19:23:35.630Z,103333.22
2023-02-12T19:29:29.352Z,103325.47
2023-02-12T19:35:17.033Z,103323.06
2023-02-12T19:41:13.567Z,103327.53
2023-02-12T19:47:02.300Z,103327.91
2023-02-12T19:52:54.394Z,103325.03
2023-02-12T19:58:44.060Z,103326.72
2023-02-12T20:04:31.498Z,103331.38
2023-02-12T20:10:19.811Z,103330.16
2023-02-12T20:16:19.752Z,103327.91
2023-02-12T20:22:10.230Z,103313.28
2023-02-12T20:27:58.103Z,103310.47
2023-02-12T20:33:45.824Z,103311.47
2023-02-12T20:39:36.061Z,103300.28
2023-02-12T20:45:23.269Z,103305.56
2023-02-12T20:51:19.295Z,103300.66
2023-02-12T20:57:08.682Z,103299.41
2023-02-12T21:03:04.334Z,103302.25
2023-02-12T21:08:55.087Z,103292.41
2023-02-12T21:14:54.293Z,103298.44
2023-02-12T21:20:42.913Z,103283.03
2023-02-12T21:26:54.977Z,103283.19
2023-02-12T21:33:41.574Z,103284.13
2023-02-12T21:46:00.839Z,103278.13
2023-02-12T21:53:24.627Z,103273.09
2023-02-12T22:00:06.364Z,103269.03
2023-02-12T22:13:05.199Z,103275.78
2023-02-12T22:19:02.680Z,103283.56
2023-02-12T22:25:42.595Z,103279.59
2023-02-12T22:40:34.511Z,103275.56
2023-02-12T22:46:21.578Z,103269.47
2023-02-12T22:52:10.616Z,103265.75
2023-02-12T22:57:57.401Z,103272.94
2023-02-12T23:03:46.861Z,103273.84
2023-02-12T23:09:33.993Z,103278.75
2023-02-12T23:15:20.744Z,103274.03
2023-02-12T23:21:07.506Z,103277.72
2023-02-12T23:26:54.354Z,103276.47
2023-02-12T23:32:41.119Z,103283.69
2023-02-12T23:39:12.400Z,103273.91
2023-02-12T23:44:59.301Z,103281.75
2023-02-12T23:50:49.427Z,103282.16
2023-02-12T23:56:36.543Z,103269.13
